createdAt,value
2022-08-17T00:00:42.746Z,71.91
2022-08-17T00:03:03.029Z,72.40
2022-08-17T00:05:30.454Z,72.62
2022-08-17T00:07:59.395Z,72.39
2022-08-17T00:10:25.911Z,72.47
2022-08-17T00:12:53.550Z,72.92
2022-08-17T00:15:21.130Z,72.91
2022-08-17T00:17:48.532Z,72.95
2022-08-17T00:20:15.050Z,72.40
2022-08-17T00:22:41.657Z,72.91
2022-08-17T00:25:08.173Z,73.05
2022-08-17T00:27:34.689Z,73.65
2022-08-17T00:30:01.212Z,73.08
2022-08-17T00:33:15.124Z,73.69
2022-08-17T00:35:15.168Z,73.58
2022-08-17T00:37:41.663Z,73.14
2022-08-17T00:40:08.188Z,73.83
2022-08-17T00:42:34.701Z,73.81
2022-08-17T00:45:01.201Z,73.37
2022-08-17T00:47:28.722Z,73.20
2022-08-17T00:49:56.167Z,73.54
2022-08-17T00:52:23.577Z,73.46
2022-08-17T00:54:51.019Z,73.93
2022-08-17T00:57:17.512Z,74.03
2022-08-17T00:59:44.997Z,73.83
2022-08-17T01:02:11.483Z,73.31
2022-08-17T01:04:37.961Z,73.03
2022-08-17T01:07:04.449Z,73.14
2022-08-17T01:09:31.889Z,73.87
2022-08-17T01:11:59.311Z,73.85
2022-08-17T01:14:25.788Z,74.33
2022-08-17T01:16:52.297Z,74.48
2022-08-17T01:19:18.790Z,74.20
2022-08-17T01:21:45.299Z,74.63
2022-08-17T01:24:11.828Z,74.15
2022-08-17T01:26:39.268Z,74.38
2022-08-17T01:29:05.768Z,74.70
2022-08-17T01:31:33.209Z,74.79
2022-08-17T01:34:00.651Z,75.37
2022-08-17T01:36:28.465Z,75.07
2022-08-17T01:38:54.950Z,74.67
2022-08-17T01:41:21.461Z,74.62
2022-08-17T01:43:47.961Z,74.93
2022-08-17T01:46:15.412Z,74.93
2022-08-17T01:48:41.921Z,75.23
2022-08-17T01:51:08.456Z,74.84
2022-08-17T01:53:35.031Z,74.96
2022-08-17T01:56:02.473Z,75.05
2022-08-17T01:58:28.967Z,75.13
2022-08-17T02:01:00.519Z,75.23
2022-08-17T02:03:28.617Z,74.71
2022-08-17T02:05:55.129Z,75.25
2022-08-17T02:08:37.229Z,75.39
2022-08-17T02:11:06.144Z,75.68
2022-08-17T02:13:37.964Z,75.67
2022-08-17T02:16:05.407Z,75.62
2022-08-17T02:18:32.822Z,75.83
2022-08-17T02:20:59.336Z,75.92
2022-08-17T02:23:25.845Z,75.74
2022-08-17T02:25:53.271Z,76.13
2022-08-17T02:28:20.698Z,76.32
2022-08-17T02:30:59.954Z,76.07
2022-08-17T02:33:42.167Z,75.86
2022-08-17T02:36:10.130Z,75.94
2022-08-17T02:38:37.669Z,75.45
2022-08-17T02:41:05.133Z,75.81
2022-08-17T02:43:32.569Z,75.70
2022-08-17T02:45:59.067Z,76.22
2022-08-17T02:48:30.778Z,76.49
2022-08-17T02:50:58.244Z,76.69
2022-08-17T02:53:24.765Z,76.38
2022-08-17T02:55:53.237Z,75.95
2022-08-17T02:58:34.714Z,76.31
2022-08-17T03:01:03.056Z,76.64
2022-08-17T03:03:29.542Z,76.06
2022-08-17T03:05:56.981Z,75.96
2022-08-17T03:08:23.567Z,76.31
2022-08-17T03:10:50.072Z,76.86
2022-08-17T03:13:17.491Z,76.66
2022-08-17T03:15:44.991Z,76.41
2022-08-17T03:18:11.545Z,75.93
2022-08-17T03:20:51.934Z,76.12
2022-08-17T03:23:18.435Z,76.46
2022-08-17T03:25:53.418Z,76.63
2022-08-17T03:28:20.214Z,75.97
2022-08-17T03:30:47.644Z,76.09
2022-08-17T03:33:15.079Z,76.53
2022-08-17T03:35:42.497Z,75.71
2022-08-17T03:38:09.049Z,76.13
2022-08-17T03:40:58.835Z,76.33
2022-08-17T03:43:22.942Z,76.06
2022-08-17T03:45:49.436Z,76.11
2022-08-17T03:48:19.495Z,75.93
2022-08-17T03:50:46.915Z,75.61
2022-08-17T03:53:13.489Z,76.05
2022-08-17T03:55:40.032Z,75.93
2022-08-17T03:58:07.531Z,76.12
2022-08-17T04:00:34.977Z,75.76
2022-08-17T04:03:06.141Z,75.80
2022-08-17T04:05:36.426Z,75.69
2022-08-17T04:08:02.907Z,75.87
2022-08-17T04:10:33.972Z,75.59
2022-08-17T04:13:11.324Z,75.55
2022-08-17T04:15:37.819Z,74.67
2022-08-17T04:18:07.289Z,74.92
2022-08-17T04:20:34.913Z,75.21
2022-08-17T04:23:02.315Z,74.91
2022-08-17T04:25:29.754Z,75.35
2022-08-17T04:27:56.220Z,74.65
2022-08-17T04:30:23.677Z,74.50
2022-08-17T04:33:02.263Z,74.66
2022-08-17T04:35:34.045Z,75.08
2022-08-17T04:38:01.470Z,74.22
2022-08-17T04:40:27.958Z,73.84
2022-08-17T04:43:00.924Z,73.76
2022-08-17T04:45:32.197Z,73.79
2022-08-17T04:47:59.135Z,74.17
2022-08-17T04:50:25.627Z,74.07
2022-08-17T04:52:53.074Z,74.34
2022-08-17T04:55:20.480Z,73.58
2022-08-17T04:57:46.968Z,73.20
2022-08-17T05:00:13.468Z,73.11
2022-08-17T05:02:39.964Z,73.19
2022-08-17T05:05:17.873Z,73.62
2022-08-17T05:07:45.301Z,73.53
2022-08-17T05:10:12.728Z,73.30
2022-08-17T05:12:40.167Z,73.47
2022-08-17T05:15:06.663Z,73.57
2022-08-17T05:17:33.156Z,72.98
2022-08-17T05:19:59.651Z,73.51
2022-08-17T05:22:26.124Z,73.55
2022-08-17T05:24:53.631Z,73.22
2022-08-17T05:27:20.544Z,73.02
2022-08-17T05:29:47.964Z,72.73
2022-08-17T05:32:38.146Z,72.39
2022-08-17T05:35:03.282Z,73.10
2022-08-17T05:37:30.989Z,72.45
2022-08-17T05:39:58.040Z,71.59
2022-08-17T05:42:25.573Z,72.10
2022-08-17T05:44:52.064Z,71.47
2022-08-17T05:47:18.553Z,71.63
2022-08-17T05:49:45.063Z,72.17
2022-08-17T05:52:19.872Z,71.99
2022-08-17T05:54:46.680Z,70.98
2022-08-17T05:57:14.092Z,70.80
2022-08-17T05:59:40.597Z,70.56
2022-08-17T06:02:07.997Z,70.60
2022-08-17T06:04:35.445Z,70.59
2022-08-17T06:07:02.883Z,70.41
2022-08-17T06:09:33.629Z,70.49
2022-08-17T06:12:01.455Z,70.58
2022-08-17T06:14:29.913Z,70.42
2022-08-17T06:16:57.312Z,70.31
2022-08-17T06:19:24.702Z,70.27
2022-08-17T06:21:52.117Z,70.04
2022-08-17T06:24:19.568Z,69.95
2022-08-17T06:26:46.991Z,69.76
2022-08-17T06:29:18.662Z,69.91
2022-08-17T06:31:45.547Z,69.88
2022-08-17T06:34:12.970Z,69.76
2022-08-17T06:36:40.372Z,69.87
2022-08-17T06:39:07.785Z,69.80
2022-08-17T06:41:37.871Z,69.65
2022-08-17T06:44:05.502Z,70.15
2022-08-17T06:46:32.916Z,70.21
2022-08-17T06:48:59.415Z,70.21
2022-08-17T06:51:25.918Z,70.11
2022-08-17T06:53:52.416Z,70.35
2022-08-17T06:56:18.948Z,70.27
2022-08-17T06:58:45.441Z,70.35
2022-08-17T07:01:12.993Z,70.48
2022-08-17T07:03:40.540Z,70.01
2022-08-17T07:06:07.052Z,70.07
2022-08-17T07:08:35.335Z,69.88
2022-08-17T07:11:02.930Z,70.16
2022-08-17T07:13:30.335Z,69.77
2022-08-17T07:15:57.732Z,69.21
2022-08-17T07:18:25.192Z,69.37
2022-08-17T07:20:52.632Z,69.49
2022-08-17T07:23:20.050Z,69.76
2022-08-17T07:25:48.207Z,69.65
2022-08-17T07:28:15.627Z,69.77
2022-08-17T07:30:43.049Z,69.64
2022-08-17T07:33:14.560Z,69.47
2022-08-17T07:35:44.125Z,69.70
2022-08-17T07:38:25.682Z,69.60
2022-08-17T07:40:54.060Z,69.56
2022-08-17T07:43:23.322Z,69.99
2022-08-17T07:45:50.272Z,69.83
2022-08-17T07:48:17.667Z,69.10
2022-08-17T07:50:49.566Z,69.11
2022-08-17T07:53:18.160Z,69.42
2022-08-17T07:55:44.673Z,69.08
2022-08-17T07:58:11.152Z,69.06
2022-08-17T08:00:37.651Z,69.11
2022-08-17T08:03:04.734Z,69.14
2022-08-17T08:05:49.953Z,68.97
2022-08-17T08:08:18.940Z,69.29
2022-08-17T08:10:46.475Z,69.25
2022-08-17T08:13:14.460Z,69.22
2022-08-17T08:15:41.043Z,68.75
2022-08-17T08:18:11.826Z,68.67
2022-08-17T08:20:53.508Z,68.69
2022-08-17T08:23:20.429Z,68.80
2022-08-17T08:25:50.899Z,68.71
2022-08-17T08:28:21.001Z,68.64
2022-08-17T08:30:47.605Z,68.49
2022-08-17T08:33:14.078Z,68.67
2022-08-17T08:35:40.568Z,68.67
2022-08-17T08:38:07.023Z,68.64
2022-08-17T08:40:33.503Z,69.23
2022-08-17T08:43:00.900Z,69.23
2022-08-17T08:45:28.310Z,69.56
2022-08-17T08:47:55.714Z,69.45
2022-08-17T08:50:37.377Z,69.71
2022-08-17T08:53:04.788Z,69.68
2022-08-17T08:55:33.469Z,69.60
2022-08-17T08:57:59.932Z,69.59
2022-08-17T09:00:27.372Z,69.66
2022-08-17T09:02:54.769Z,69.77
2022-08-17T09:05:22.158Z,69.90
2022-08-17T09:07:48.741Z,69.61
2022-08-17T09:10:15.266Z,69.69
2022-08-17T09:12:42.717Z,69.80
2022-08-17T09:15:12.983Z,70.04
2022-08-17T09:17:39.676Z,69.92
2022-08-17T09:20:07.059Z,69.91
2022-08-17T09:22:34.381Z,69.92
2022-08-17T09:25:00.817Z,69.93
2022-08-17T09:27:28.130Z,70.11
2022-08-17T09:29:54.643Z,69.98
2022-08-17T09:32:21.002Z,70.18
2022-08-17T09:34:48.511Z,69.95
2022-08-17T09:37:15.073Z,70.12
2022-08-17T09:39:41.747Z,70.10
2022-08-17T09:42:08.294Z,70.16
2022-08-17T09:44:35.524Z,70.14
2022-08-17T09:47:04.718Z,70.21
2022-08-17T09:49:31.147Z,70.42
2022-08-17T09:51:57.662Z,70.35
2022-08-17T09:54:38.639Z,70.23
2022-08-17T09:57:27.882Z,70.35
2022-08-17T09:59:51.899Z,70.34
2022-08-17T10:02:18.414Z,70.33
2022-08-17T10:04:46.721Z,70.43
2022-08-17T10:07:13.143Z,70.55
2022-08-17T10:09:39.502Z,70.60
2022-08-17T10:12:06.012Z,70.58
2022-08-17T10:14:37.372Z,70.59
2022-08-17T10:17:12.580Z,70.21
2022-08-17T10:19:39.022Z,70.58
2022-08-17T10:22:14.672Z,70.82
2022-08-17T10:25:02.021Z,70.44
2022-08-17T10:27:38.191Z,70.58
2022-08-17T10:30:05.436Z,70.74
2022-08-17T10:32:31.832Z,70.84
2022-08-17T10:34:58.255Z,70.74
2022-08-17T10:37:24.691Z,71.07
2022-08-17T10:39:52.970Z,70.86
2022-08-17T10:42:33.064Z,70.66
2022-08-17T10:45:00.605Z,71.22
2022-08-17T10:47:27.879Z,71.20
2022-08-17T10:49:54.529Z,71.23
2022-08-17T10:52:25.089Z,71.44
2022-08-17T10:54:51.621Z,70.36
2022-08-17T10:57:23.948Z,70.31
2022-08-17T10:59:50.302Z,69.89
2022-08-17T11:02:16.683Z,70.22
2022-08-17T11:04:43.052Z,69.99
2022-08-17T11:07:09.544Z,70.00
2022-08-17T11:09:36.752Z,70.04
2022-08-17T11:12:03.158Z,70.02
2022-08-17T11:14:29.557Z,70.01
2022-08-17T11:16:56.819Z,69.83
2022-08-17T11:19:24.132Z,69.77
2022-08-17T11:21:50.494Z,69.83
2022-08-17T11:24:17.714Z,69.57
2022-08-17T11:26:44.095Z,69.43
2022-08-17T11:29:10.486Z,69.33
2022-08-17T11:31:39.725Z,69.50
2022-08-17T11:34:06.394Z,69.13
2022-08-17T11:36:32.782Z,69.12
2022-08-17T11:38:59.153Z,69.11
2022-08-17T11:41:25.588Z,69.10
2022-08-17T11:43:52.010Z,68.86
2022-08-17T11:46:18.370Z,69.05
2022-08-17T11:48:44.745Z,68.27
2022-08-17T11:51:11.116Z,68.79
2022-08-17T11:53:37.506Z,68.54
2022-08-17T11:56:03.877Z,68.40
2022-08-17T11:58:30.337Z,68.43
2022-08-17T12:00:56.724Z,68.54
2022-08-17T12:03:23.157Z,68.50
2022-08-17T12:05:49.559Z,68.46
2022-08-17T12:08:15.932Z,68.57
2022-08-17T12:10:42.313Z,68.47
2022-08-17T12:13:09.565Z,68.43
2022-08-17T12:15:35.943Z,67.96
2022-08-17T12:18:02.341Z,68.05
2022-08-17T12:20:28.701Z,68.50
2022-08-17T12:22:55.096Z,68.44
2022-08-17T12:25:21.456Z,68.24
2022-08-17T12:28:05.484Z,68.40
2022-08-17T12:30:33.682Z,68.74
2022-08-17T12:33:00.059Z,69.57
2022-08-17T12:35:26.436Z,69.33
2022-08-17T12:37:52.861Z,69.74
2022-08-17T12:40:19.223Z,69.43
2022-08-17T12:42:45.580Z,69.74
2022-08-17T12:45:12.821Z,69.58
2022-08-17T12:47:39.205Z,69.57
2022-08-17T12:50:05.640Z,69.63
2022-08-17T12:52:32.043Z,69.77
2022-08-17T12:54:58.416Z,69.70
2022-08-17T12:57:24.784Z,69.63
2022-08-17T12:59:51.135Z,69.61
2022-08-17T13:02:17.551Z,69.94
2022-08-17T13:04:44.756Z,69.82
2022-08-17T13:07:11.133Z,70.00
2022-08-17T13:09:40.681Z,70.07
2022-08-17T13:12:07.737Z,69.96
2022-08-17T13:14:34.302Z,70.37
2022-08-17T13:17:00.687Z,70.04
2022-08-17T13:19:40.185Z,69.92
2022-08-17T13:22:07.674Z,69.98
2022-08-17T13:24:38.286Z,70.27
2022-08-17T13:27:08.000Z,70.33
2022-08-17T13:29:34.853Z,70.33
2022-08-17T13:32:04.740Z,70.45
2022-08-17T13:34:31.517Z,70.43
2022-08-17T13:36:59.724Z,70.44
2022-08-17T13:39:26.305Z,70.38
2022-08-17T13:41:53.832Z,70.41
2022-08-17T13:44:23.934Z,70.34
2022-08-17T13:46:50.320Z,70.39
2022-08-17T13:49:22.303Z,70.33
2022-08-17T13:51:49.531Z,70.25
2022-08-17T13:54:15.894Z,70.40
2022-08-17T13:56:42.271Z,70.48
2022-08-17T13:59:09.559Z,70.41
2022-08-17T14:01:36.006Z,70.68
2022-08-17T14:04:02.424Z,70.58
2022-08-17T14:06:52.448Z,70.48
2022-08-17T14:09:16.020Z,70.61
2022-08-17T14:11:42.414Z,70.64
2022-08-17T14:14:09.629Z,70.58
2022-08-17T14:16:39.371Z,70.71
2022-08-17T14:19:05.807Z,70.70
2022-08-17T14:21:32.183Z,70.40
2022-08-17T14:23:58.585Z,70.27
2022-08-17T14:26:24.992Z,69.81
2022-08-17T14:28:56.197Z,69.48
2022-08-17T14:31:23.360Z,69.51
2022-08-17T14:33:49.773Z,69.29
2022-08-17T14:36:16.161Z,69.29
2022-08-17T14:38:42.522Z,69.65
2022-08-17T14:41:09.795Z,69.48
2022-08-17T14:43:36.167Z,69.09
2022-08-17T14:46:02.532Z,69.30
2022-08-17T14:48:28.928Z,69.29
2022-08-17T14:50:56.173Z,69.05
2022-08-17T14:53:23.424Z,68.94
2022-08-17T14:55:49.829Z,69.07
2022-08-17T14:58:16.207Z,68.94
2022-08-17T15:00:43.479Z,69.03
2022-08-17T15:03:10.015Z,68.84
2022-08-17T15:05:36.443Z,68.68
2022-08-17T15:08:02.833Z,68.95
2022-08-17T15:10:31.114Z,68.60
2022-08-17T15:12:57.489Z,68.72
2022-08-17T15:15:25.764Z,68.84
2022-08-17T15:17:52.999Z,68.60
2022-08-17T15:20:19.510Z,68.83
2022-08-17T15:22:45.935Z,68.92
2022-08-17T15:25:12.381Z,68.60
2022-08-17T15:27:38.808Z,68.89
2022-08-17T15:30:07.291Z,68.64
2022-08-17T15:32:33.890Z,68.57
2022-08-17T15:35:00.394Z,68.60
2022-08-17T15:37:29.608Z,68.64
2022-08-17T15:39:58.034Z,68.72
2022-08-17T15:42:24.623Z,68.39
2022-08-17T15:44:54.608Z,68.62
2022-08-17T15:47:21.082Z,68.47
2022-08-17T15:49:47.566Z,68.67
2022-08-17T15:52:14.073Z,68.59
2022-08-17T15:54:41.319Z,68.62
2022-08-17T15:57:11.820Z,68.40
2022-08-17T15:59:39.056Z,68.60
2022-08-17T16:03:14.515Z,68.39
2022-08-17T16:04:51.989Z,68.67
2022-08-17T16:07:23.037Z,68.72
2022-08-17T16:09:52.478Z,68.24
2022-08-17T16:12:19.022Z,68.46
2022-08-17T16:14:45.531Z,68.24
2022-08-17T16:17:39.165Z,68.38
2022-08-17T16:19:59.202Z,68.52
2022-08-17T16:22:27.518Z,68.48
2022-08-17T16:24:57.135Z,68.43
2022-08-17T16:27:24.184Z,68.47
2022-08-17T16:29:51.788Z,68.25
2022-08-17T16:32:22.820Z,68.14
2022-08-17T16:34:58.521Z,68.26
2022-08-17T16:37:25.033Z,68.10
2022-08-17T16:39:51.899Z,68.49
2022-08-17T16:42:19.258Z,68.31
2022-08-17T16:44:47.565Z,68.16
2022-08-17T16:47:14.073Z,68.27
2022-08-17T16:49:40.530Z,68.41
2022-08-17T16:52:06.971Z,68.16
2022-08-17T16:54:33.489Z,68.17
2022-08-17T16:57:00.764Z,68.22
2022-08-17T16:59:31.109Z,68.24
2022-08-17T17:02:06.829Z,68.10
2022-08-17T17:04:35.068Z,68.27
2022-08-17T17:07:01.812Z,68.16
2022-08-17T17:09:28.250Z,68.10
2022-08-17T17:11:54.678Z,68.16
2022-08-17T17:14:21.957Z,68.31
2022-08-17T17:16:49.243Z,68.21
2022-08-17T17:19:16.504Z,68.14
2022-08-17T17:21:52.836Z,68.02
2022-08-17T17:24:20.209Z,68.34
2022-08-17T17:26:46.640Z,68.04
2022-08-17T17:29:13.893Z,68.01
2022-08-17T17:31:41.204Z,67.90
2022-08-17T17:34:07.629Z,68.21
2022-08-17T17:36:34.084Z,68.34
2022-08-17T17:39:00.508Z,68.11
2022-08-17T17:41:27.001Z,68.11
2022-08-17T17:43:53.424Z,68.07
2022-08-17T17:46:26.625Z,68.08
2022-08-17T17:48:55.411Z,68.15
2022-08-17T17:52:08.587Z,68.25
2022-08-17T17:54:08.435Z,68.31
2022-08-17T17:56:44.635Z,67.96
2022-08-17T17:59:13.235Z,68.06
2022-08-17T18:01:40.796Z,68.12
2022-08-17T18:04:15.681Z,67.83
2022-08-17T18:06:47.939Z,68.54
2022-08-17T18:09:15.481Z,68.79
2022-08-17T18:11:45.990Z,69.17
2022-08-17T18:14:19.639Z,68.81
2022-08-17T18:16:46.176Z,68.94
2022-08-17T18:19:13.627Z,69.08
2022-08-17T18:21:41.001Z,68.38
2022-08-17T18:24:07.521Z,65.64
2022-08-17T18:26:33.995Z,64.63
2022-08-17T18:29:00.583Z,64.55
2022-08-17T18:31:27.084Z,64.27
2022-08-17T18:33:53.593Z,64.82
2022-08-17T18:36:20.071Z,64.47
2022-08-17T18:38:46.570Z,65.13
2022-08-17T18:41:13.061Z,64.91
2022-08-17T18:43:52.738Z,64.54
2022-08-17T18:46:28.743Z,64.30
2022-08-17T18:48:58.923Z,63.98
2022-08-17T18:51:40.467Z,63.81
2022-08-17T18:54:09.103Z,63.29
2022-08-17T18:56:35.643Z,63.57
2022-08-17T18:59:02.144Z,63.59
2022-08-17T19:01:46.896Z,63.46
2022-08-17T19:04:15.130Z,63.24
2022-08-17T19:06:41.651Z,63.82
2022-08-17T19:09:08.171Z,64.16
2022-08-17T19:11:35.608Z,64.31
2022-08-17T19:14:03.033Z,64.57
2022-08-17T19:16:30.476Z,64.84
2022-08-17T19:18:56.949Z,64.54
2022-08-17T19:21:23.464Z,64.83
2022-08-17T19:23:53.801Z,65.13
2022-08-17T19:26:54.601Z,64.95
2022-08-17T19:29:08.405Z,65.01
2022-08-17T19:31:36.231Z,64.91
2022-08-17T19:34:02.742Z,64.90
2022-08-17T19:36:30.494Z,65.03
2022-08-17T19:38:56.994Z,65.39
2022-08-17T19:41:24.427Z,65.47
2022-08-17T19:43:50.924Z,65.37
2022-08-17T19:46:18.364Z,65.45
2022-08-17T19:48:45.916Z,65.40
2022-08-17T19:51:13.324Z,65.47
2022-08-17T19:54:03.910Z,65.22
2022-08-17T19:56:27.292Z,65.65
2022-08-17T19:58:54.746Z,65.58
2022-08-17T20:01:22.182Z,65.52
2022-08-17T20:03:49.704Z,65.40
2022-08-17T20:06:16.241Z,65.71
2022-08-17T20:08:43.686Z,65.67
2022-08-17T20:11:10.180Z,65.66
2022-08-17T20:13:37.610Z,65.98
2022-08-17T20:16:05.078Z,65.68
2022-08-17T20:18:32.513Z,65.87
2022-08-17T20:20:59.014Z,65.92
2022-08-17T20:23:27.417Z,65.88
2022-08-17T20:25:53.912Z,65.94
2022-08-17T20:28:21.384Z,66.20
2022-08-17T20:30:47.890Z,65.99
2022-08-17T20:33:14.429Z,66.05
2022-08-17T20:35:41.875Z,65.95
2022-08-17T20:38:08.398Z,66.33
2022-08-17T20:40:35.827Z,66.54
2022-08-17T20:43:03.390Z,66.70
2022-08-17T20:45:30.826Z,66.59
2022-08-17T20:50:45.940Z,66.34
2022-08-17T20:53:13.354Z,66.41
2022-08-17T20:55:51.574Z,66.16
2022-08-17T20:58:20.106Z,66.28
2022-08-17T21:00:46.649Z,66.48
2022-08-17T21:03:14.079Z,65.86
2022-08-17T21:05:40.654Z,65.99
2022-08-17T21:08:07.149Z,66.45
2022-08-17T21:10:34.578Z,66.87
2022-08-17T21:13:01.074Z,66.80
2022-08-17T21:18:11.555Z,66.87
2022-08-17T21:20:38.048Z,67.34
2022-08-17T21:23:04.612Z,66.97
2022-08-17T21:25:31.101Z,66.97
2022-08-17T21:27:58.534Z,67.21
2022-08-17T21:33:20.732Z,67.60
2022-08-17T21:35:48.182Z,67.91
2022-08-17T21:38:14.684Z,67.71
2022-08-17T21:40:41.198Z,68.07
2022-08-17T21:43:07.689Z,68.09
2022-08-17T21:48:29.114Z,68.28
2022-08-17T21:50:55.631Z,67.97
2022-08-17T21:53:23.287Z,68.23
2022-08-17T21:55:50.728Z,68.55
2022-08-17T21:58:17.265Z,68.74
2022-08-17T22:03:37.789Z,68.68
2022-08-17T22:06:05.989Z,68.85
2022-08-17T22:08:33.406Z,69.01
2022-08-17T22:10:59.940Z,68.86
2022-08-17T22:13:29.811Z,68.93
2022-08-17T22:18:42.717Z,69.75
2022-08-17T22:21:10.183Z,69.29
2022-08-17T22:23:37.634Z,69.66
2022-08-17T22:26:04.129Z,69.86
2022-08-17T22:28:31.525Z,69.89
2022-08-17T22:33:44.932Z,69.79
2022-08-17T22:36:11.440Z,69.65
2022-08-17T22:38:38.867Z,69.58
2022-08-17T22:41:07.122Z,69.86
2022-08-17T22:43:34.613Z,69.85
2022-08-17T22:46:02.461Z,70.17
2022-08-17T22:48:29.896Z,70.42
2022-08-17T22:50:57.321Z,70.43
2022-08-17T22:53:24.764Z,70.49
2022-08-17T22:55:52.171Z,71.01
2022-08-17T22:58:19.620Z,70.97
2022-08-17T23:00:47.064Z,71.28
2022-08-17T23:03:13.643Z,70.71
2022-08-17T23:05:40.223Z,71.24
2022-08-17T23:08:07.642Z,71.47
2022-08-17T23:10:34.171Z,71.43
2022-08-17T23:13:01.581Z,71.03
2022-08-17T23:15:29.456Z,70.82
2022-08-17T23:17:56.911Z,70.91
2022-08-17T23:20:24.315Z,70.56
2022-08-17T23:22:53.087Z,70.39
2022-08-17T23:25:19.685Z,70.18
2022-08-17T23:27:50.994Z,70.41
2022-08-17T23:30:17.569Z,70.19
2022-08-17T23:32:53.557Z,70.36
2022-08-17T23:35:20.549Z,70.92
2022-08-17T23:38:07.004Z,71.07
2022-08-17T23:40:33.501Z,71.11
2022-08-17T23:43:00.931Z,71.08
2022-08-17T23:45:32.469Z,71.31
2022-08-17T23:47:59.980Z,71.50
2022-08-17T23:50:30.022Z,71.64
2022-08-17T23:52:58.546Z,71.64
2022-08-17T23:55:25.059Z,72.07
2022-08-17T23:57:51.684Z,72.33
